sensor_id;sensor_type;location;lat;lon;timestamp;P1;durP1;ratioP1;P2;durP2;ratioP2
64868;SDS011;51349;52.424;10.840;2023-07-20T00:03:13;2.20;;;2.10;;
64868;SDS011;51349;52.424;10.840;2023-07-20T00:08:18;2.30;;;2.20;;
64868;SDS011;51349;52.424;10.840;2023-07-20T00:13:19;2.40;;;2.30;;
64868;SDS011;51349;52.424;10.840;2023-07-20T00:18:21;2.40;;;2.30;;
64868;SDS011;51349;52.424;10.840;2023-07-20T00:23:21;2.50;;;2.30;;
64868;SDS011;51349;52.424;10.840;2023-07-20T00:28:22;2.03;;;1.92;;
64868;SDS011;51349;52.424;10.840;2023-07-20T00:33:23;2.10;;;2.00;;
64868;SDS011;51349;52.424;10.840;2023-07-20T00:38:24;2.08;;;1.85;;
64868;SDS011;51349;52.424;10.840;2023-07-20T00:43:24;2.03;;;1.92;;
64868;SDS011;51349;52.424;10.840;2023-07-20T00:48:25;2.10;;;2.00;;
64868;SDS011;51349;52.424;10.840;2023-07-20T00:53:26;2.10;;;2.00;;
64868;SDS011;51349;52.424;10.840;2023-07-20T00:58:27;2.20;;;2.10;;
64868;SDS011;51349;52.424;10.840;2023-07-20T01:03:28;2.10;;;2.00;;
64868;SDS011;51349;52.424;10.840;2023-07-20T01:08:33;2.10;;;2.00;;
64868;SDS011;51349;52.424;10.840;2023-07-20T01:13:42;2.40;;;2.30;;
64868;SDS011;51349;52.424;10.840;2023-07-20T01:18:44;2.10;;;2.00;;
64868;SDS011;51349;52.424;10.840;2023-07-20T01:34:22;2.35;;;2.25;;
64868;SDS011;51349;52.424;10.840;2023-07-20T01:39:24;2.17;;;2.08;;
64868;SDS011;51349;52.424;10.840;2023-07-20T01:44:27;2.10;;;2.00;;
64868;SDS011;51349;52.424;10.840;2023-07-20T01:49:27;2.30;;;2.20;;
64868;SDS011;51349;52.424;10.840;2023-07-20T01:54:28;2.63;;;2.42;;
64868;SDS011;51349;52.424;10.840;2023-07-20T01:59:29;2.63;;;1.80;;
64868;SDS011;51349;52.424;10.840;2023-07-20T02:04:29;2.15;;;1.92;;
64868;SDS011;51349;52.424;10.840;2023-07-20T02:09:30;2.00;;;1.90;;
64868;SDS011;51349;52.424;10.840;2023-07-20T02:14:31;2.22;;;1.90;;
64868;SDS011;51349;52.424;10.840;2023-07-20T02:19:31;1.88;;;1.77;;
64868;SDS011;51349;52.424;10.840;2023-07-20T02:24:33;1.92;;;1.83;;
64868;SDS011;51349;52.424;10.840;2023-07-20T02:29:34;2.08;;;1.98;;
64868;SDS011;51349;52.424;10.840;2023-07-20T02:34:35;1.95;;;1.80;;
64868;SDS011;51349;52.424;10.840;2023-07-20T02:39:36;1.80;;;1.70;;
64868;SDS011;51349;52.424;10.840;2023-07-20T02:44:37;1.77;;;1.70;;
64868;SDS011;51349;52.424;10.840;2023-07-20T02:49:37;1.98;;;1.88;;
64868;SDS011;51349;52.424;10.840;2023-07-20T02:54:38;2.30;;;2.10;;
64868;SDS011;51349;52.424;10.840;2023-07-20T02:59:39;2.10;;;2.00;;
64868;SDS011;51349;52.424;10.840;2023-07-20T03:04:39;2.17;;;2.08;;
64868;SDS011;51349;52.424;10.840;2023-07-20T03:09:40;2.03;;;1.90;;
64868;SDS011;51349;52.424;10.840;2023-07-20T03:14:40;2.08;;;1.98;;
64868;SDS011;51349;52.424;10.840;2023-07-20T03:19:41;2.83;;;2.00;;
64868;SDS011;51349;52.424;10.840;2023-07-20T03:24:42;2.50;;;2.03;;
64868;SDS011;51349;52.424;10.840;2023-07-20T03:29:43;2.15;;;2.05;;
64868;SDS011;51349;52.424;10.840;2023-07-20T03:34:44;2.40;;;2.20;;
64868;SDS011;51349;52.424;10.840;2023-07-20T03:39:45;2.03;;;1.92;;
64868;SDS011;51349;52.424;10.840;2023-07-20T03:44:46;2.13;;;2.03;;
64868;SDS011;51349;52.424;10.840;2023-07-20T03:49:46;2.00;;;1.90;;
64868;SDS011;51349;52.424;10.840;2023-07-20T03:54:47;2.05;;;1.95;;
64868;SDS011;51349;52.424;10.840;2023-07-20T03:59:48;2.33;;;2.10;;
64868;SDS011;51349;52.424;10.840;2023-07-20T04:04:48;2.10;;;2.00;;
64868;SDS011;51349;52.424;10.840;2023-07-20T04:09:49;2.03;;;1.92;;
64868;SDS011;51349;52.424;10.840;2023-07-20T04:14:50;2.30;;;2.03;;
64868;SDS011;51349;52.424;10.840;2023-07-20T04:19:51;1.88;;;1.80;;
64868;SDS011;51349;52.424;10.840;2023-07-20T04:24:51;2.03;;;1.92;;
64868;SDS011;51349;52.424;10.840;2023-07-20T04:29:52;5.22;;;2.17;;
64868;SDS011;51349;52.424;10.840;2023-07-20T04:34:53;1.70;;;1.60;;
64868;SDS011;51349;52.424;10.840;2023-07-20T04:39:53;1.77;;;1.67;;
64868;SDS011;51349;52.424;10.840;2023-07-20T04:44:54;1.80;;;1.70;;
64868;SDS011;51349;52.424;10.840;2023-07-20T04:49:55;1.73;;;1.70;;
64868;SDS011;51349;52.424;10.840;2023-07-20T04:54:55;1.75;;;1.50;;
64868;SDS011;51349;52.424;10.840;2023-07-20T04:59:57;1.90;;;1.80;;
64868;SDS011;51349;52.424;10.840;2023-07-20T05:04:57;1.90;;;1.80;;
64868;SDS011;51349;52.424;10.840;2023-07-20T05:09:58;3.15;;;1.90;;
64868;SDS011;51349;52.424;10.840;2023-07-20T05:14:59;1.88;;;1.77;;
64868;SDS011;51349;52.424;10.840;2023-07-20T05:20:00;2.40;;;1.92;;
64868;SDS011;51349;52.424;10.840;2023-07-20T05:25:00;1.50;;;1.50;;
64868;SDS011;51349;52.424;10.840;2023-07-20T05:30:01;1.60;;;1.50;;
64868;SDS011;51349;52.424;10.840;2023-07-20T05:35:02;2.00;;;1.60;;
64868;SDS011;51349;52.424;10.840;2023-07-20T05:40:03;1.80;;;1.70;;
64868;SDS011;51349;52.424;10.840;2023-07-20T05:45:05;1.35;;;1.30;;
64868;SDS011;51349;52.424;10.840;2023-07-20T05:50:07;2.38;;;1.88;;
64868;SDS011;51349;52.424;10.840;2023-07-20T05:55:08;3.75;;;1.88;;
64868;SDS011;51349;52.424;10.840;2023-07-20T06:00:09;2.20;;;2.10;;
64868;SDS011;51349;52.424;10.840;2023-07-20T06:05:10;3.03;;;1.80;;
64868;SDS011;51349;52.424;10.840;2023-07-20T06:10:11;4.18;;;2.35;;
64868;SDS011;51349;52.424;10.840;2023-07-20T06:15:33;2.60;;;2.15;;
64868;SDS011;51349;52.424;10.840;2023-07-20T06:20:35;3.03;;;2.30;;
64868;SDS011;51349;52.424;10.840;2023-07-20T06:25:35;2.60;;;2.40;;
64868;SDS011;51349;52.424;10.840;2023-07-20T06:30:36;2.25;;;1.90;;
64868;SDS011;51349;52.424;10.840;2023-07-20T06:35:37;2.30;;;2.20;;
64868;SDS011;51349;52.424;10.840;2023-07-20T06:40:37;2.10;;;2.00;;
64868;SDS011;51349;52.424;10.840;2023-07-20T06:45:38;2.92;;;2.63;;
64868;SDS011;51349;52.424;10.840;2023-07-20T06:50:38;2.63;;;2.47;;
64868;SDS011;51349;52.424;10.840;2023-07-20T06:55:41;2.63;;;2.40;;
64868;SDS011;51349;52.424;10.840;2023-07-20T07:00:42;2.78;;;2.28;;
64868;SDS011;51349;52.424;10.840;2023-07-20T07:05:43;1.92;;;1.83;;
64868;SDS011;51349;52.424;10.840;2023-07-20T07:10:45;1.55;;;1.45;;
64868;SDS011;51349;52.424;10.840;2023-07-20T07:15:46;3.03;;;2.47;;
64868;SDS011;51349;52.424;10.840;2023-07-20T07:20:50;1.73;;;1.70;;
64868;SDS011;51349;52.424;10.840;2023-07-20T07:25:52;1.80;;;1.70;;
64868;SDS011;51349;52.424;10.840;2023-07-20T07:30:53;1.50;;;1.40;;
64868;SDS011;51349;52.424;10.840;2023-07-20T07:35:55;1.10;;;1.10;;
64868;SDS011;51349;52.424;10.840;2023-07-20T07:40:55;2.05;;;1.27;;
64868;SDS011;51349;52.424;10.840;2023-07-20T07:45:57;1.15;;;1.08;;
64868;SDS011;51349;52.424;10.840;2023-07-20T07:50:58;1.20;;;1.20;;
64868;SDS011;51349;52.424;10.840;2023-07-20T07:55:59;0.90;;;0.90;;
64868;SDS011;51349;52.424;10.840;2023-07-20T08:01:00;0.80;;;0.80;;
64868;SDS011;51349;52.424;10.840;2023-07-20T08:06:01;0.82;;;0.80;;
64868;SDS011;51349;52.424;10.840;2023-07-20T08:11:04;0.80;;;0.80;;
64868;SDS011;51349;52.424;10.840;2023-07-20T08:16:05;0.90;;;0.90;;
64868;SDS011;51349;52.424;10.840;2023-07-20T08:21:05;0.82;;;0.82;;
64868;SDS011;51349;52.424;10.840;2023-07-20T08:26:06;0.80;;;0.80;;
64868;SDS011;51349;52.424;10.840;2023-07-20T08:31:07;0.80;;;0.80;;
64868;SDS011;51349;52.424;10.840;2023-07-20T08:36:08;0.68;;;0.60;;
64868;SDS011;51349;52.424;10.840;2023-07-20T08:41:09;2.40;;;0.70;;
64868;SDS011;51349;52.424;10.840;2023-07-20T08:46:10;0.60;;;0.60;;
64868;SDS011;51349;52.424;10.840;2023-07-20T08:51:13;1.13;;;0.70;;
64868;SDS011;51349;52.424;10.840;2023-07-20T08:56:15;0.98;;;0.80;;
64868;SDS011;51349;52.424;10.840;2023-07-20T09:01:18;0.80;;;0.80;;
64868;SDS011;51349;52.424;10.840;2023-07-20T09:06:20;1.60;;;1.00;;
64868;SDS011;51349;52.424;10.840;2023-07-20T09:11:21;0.70;;;0.65;;
64868;SDS011;51349;52.424;10.840;2023-07-20T09:16:21;10.05;;;1.13;;
64868;SDS011;51349;52.424;10.840;2023-07-20T09:21:22;1.48;;;0.85;;
64868;SDS011;51349;52.424;10.840;2023-07-20T09:26:22;1.00;;;0.80;;
64868;SDS011;51349;52.424;10.840;2023-07-20T09:31:23;0.80;;;0.80;;
64868;SDS011;51349;52.424;10.840;2023-07-20T09:36:26;0.70;;;0.70;;
64868;SDS011;51349;52.424;10.840;2023-07-20T09:41:27;1.13;;;1.13;;
64868;SDS011;51349;52.424;10.840;2023-07-20T09:46:46;0.80;;;0.80;;
64868;SDS011;51349;52.424;10.840;2023-07-20T09:51:47;0.70;;;0.70;;
64868;SDS011;51349;52.424;10.840;2023-07-20T09:56:50;0.70;;;0.70;;
64868;SDS011;51349;52.424;10.840;2023-07-20T10:01:53;0.57;;;0.57;;
64868;SDS011;51349;52.424;10.840;2023-07-20T10:06:58;0.60;;;0.60;;
64868;SDS011;51349;52.424;10.840;2023-07-20T10:12:03;0.93;;;0.80;;
64868;SDS011;51349;52.424;10.840;2023-07-20T10:17:05;0.60;;;0.60;;
64868;SDS011;51349;52.424;10.840;2023-07-20T10:22:14;1.55;;;0.70;;
64868;SDS011;51349;52.424;10.840;2023-07-20T10:27:17;1.77;;;0.80;;
64868;SDS011;51349;52.424;10.840;2023-07-20T10:32:19;0.70;;;0.70;;
64868;SDS011;51349;52.424;10.840;2023-07-20T10:43:04;1.40;;;0.70;;
64868;SDS011;51349;52.424;10.840;2023-07-20T10:48:13;0.75;;;0.75;;
64868;SDS011;51349;52.424;10.840;2023-07-20T10:53:24;0.80;;;0.80;;
64868;SDS011;51349;52.424;10.840;2023-07-20T10:58:24;0.80;;;0.80;;
64868;SDS011;51349;52.424;10.840;2023-07-20T11:03:29;0.73;;;0.73;;
64868;SDS011;51349;52.424;10.840;2023-07-20T11:08:41;0.77;;;0.77;;
64868;SDS011;51349;52.424;10.840;2023-07-20T11:13:53;1.00;;;1.00;;
64868;SDS011;51349;52.424;10.840;2023-07-20T11:18:59;1.77;;;1.10;;
64868;SDS011;51349;52.424;10.840;2023-07-20T11:24:02;0.90;;;0.90;;
64868;SDS011;51349;52.424;10.840;2023-07-20T11:29:04;1.52;;;0.77;;
64868;SDS011;51349;52.424;10.840;2023-07-20T11:34:04;0.90;;;0.90;;
64868;SDS011;51349;52.424;10.840;2023-07-20T11:39:06;1.30;;;1.20;;
64868;SDS011;51349;52.424;10.840;2023-07-20T11:44:09;1.08;;;1.08;;
64868;SDS011;51349;52.424;10.840;2023-07-20T11:49:13;1.45;;;1.10;;
64868;SDS011;51349;52.424;10.840;2023-07-20T11:54:13;3.60;;;3.10;;
64868;SDS011;51349;52.424;10.840;2023-07-20T11:59:14;0.93;;;0.93;;
64868;SDS011;51349;52.424;10.840;2023-07-20T12:04:14;1.77;;;1.02;;
64868;SDS011;51349;52.424;10.840;2023-07-20T12:09:16;1.65;;;1.23;;
64868;SDS011;51349;52.424;10.840;2023-07-20T12:14:17;0.90;;;0.90;;
64868;SDS011;51349;52.424;10.840;2023-07-20T12:19:18;1.00;;;1.00;;
64868;SDS011;51349;52.424;10.840;2023-07-20T12:24:18;1.00;;;1.00;;
64868;SDS011;51349;52.424;10.840;2023-07-20T12:29:19;0.70;;;0.70;;
64868;SDS011;51349;52.424;10.840;2023-07-20T12:34:20;0.80;;;0.80;;
64868;SDS011;51349;52.424;10.840;2023-07-20T12:39:24;1.20;;;1.10;;
64868;SDS011;51349;52.424;10.840;2023-07-20T12:44:24;1.02;;;1.00;;
64868;SDS011;51349;52.424;10.840;2023-07-20T12:49:25;0.82;;;0.80;;
64868;SDS011;51349;52.424;10.840;2023-07-20T12:54:25;0.90;;;0.90;;
64868;SDS011;51349;52.424;10.840;2023-07-20T12:59:26;1.08;;;1.05;;
64868;SDS011;51349;52.424;10.840;2023-07-20T13:04:27;1.42;;;1.00;;
64868;SDS011;51349;52.424;10.840;2023-07-20T13:09:27;1.35;;;1.25;;
64868;SDS011;51349;52.424;10.840;2023-07-20T13:14:28;0.90;;;0.90;;
64868;SDS011;51349;52.424;10.840;2023-07-20T13:19:29;3.28;;;1.10;;
64868;SDS011;51349;52.424;10.840;2023-07-20T13:24:30;1.65;;;1.05;;
64868;SDS011;51349;52.424;10.840;2023-07-20T13:29:30;1.00;;;1.00;;
64868;SDS011;51349;52.424;10.840;2023-07-20T13:34:32;1.15;;;1.15;;
64868;SDS011;51349;52.424;10.840;2023-07-20T13:39:32;1.20;;;1.20;;
64868;SDS011;51349;52.424;10.840;2023-07-20T13:44:33;1.40;;;1.30;;
64868;SDS011;51349;52.424;10.840;2023-07-20T13:49:34;2.03;;;1.70;;
64868;SDS011;51349;52.424;10.840;2023-07-20T13:54:35;1.20;;;1.20;;
64868;SDS011;51349;52.424;10.840;2023-07-20T13:59:36;2.00;;;1.20;;
64868;SDS011;51349;52.424;10.840;2023-07-20T14:04:36;2.78;;;1.20;;
64868;SDS011;51349;52.424;10.840;2023-07-20T14:09:37;3.28;;;1.40;;
64868;SDS011;51349;52.424;10.840;2023-07-20T14:14:37;3.17;;;1.20;;
64868;SDS011;51349;52.424;10.840;2023-07-20T14:19:38;1.40;;;1.30;;
64868;SDS011;51349;52.424;10.840;2023-07-20T14:24:39;1.30;;;1.20;;
64868;SDS011;51349;52.424;10.840;2023-07-20T14:29:39;1.35;;;1.23;;
64868;SDS011;51349;52.424;10.840;2023-07-20T14:34:40;1.23;;;1.20;;
64868;SDS011;51349;52.424;10.840;2023-07-20T14:39:41;1.30;;;1.27;;
64868;SDS011;51349;52.424;10.840;2023-07-20T14:44:41;1.58;;;1.00;;
64868;SDS011;51349;52.424;10.840;2023-07-20T14:49:42;1.10;;;1.10;;
64868;SDS011;51349;52.424;10.840;2023-07-20T14:54:43;3.03;;;1.38;;
64868;SDS011;51349;52.424;10.840;2023-07-20T14:59:44;1.67;;;1.50;;
64868;SDS011;51349;52.424;10.840;2023-07-20T15:04:47;1.40;;;1.30;;
64868;SDS011;51349;52.424;10.840;2023-07-20T15:09:49;1.60;;;1.45;;
64868;SDS011;51349;52.424;10.840;2023-07-20T15:20:11;1.52;;;1.40;;
64868;SDS011;51349;52.424;10.840;2023-07-20T15:25:12;3.42;;;1.60;;
64868;SDS011;51349;52.424;10.840;2023-07-20T15:30:13;2.08;;;1.70;;
64868;SDS011;51349;52.424;10.840;2023-07-20T15:35:14;2.38;;;1.60;;
64868;SDS011;51349;52.424;10.840;2023-07-20T15:40:15;2.00;;;1.50;;
64868;SDS011;51349;52.424;10.840;2023-07-20T15:45:16;1.67;;;1.58;;
64868;SDS011;51349;52.424;10.840;2023-07-20T15:50:16;1.50;;;1.50;;
64868;SDS011;51349;52.424;10.840;2023-07-20T15:55:17;3.13;;;1.67;;
64868;SDS011;51349;52.424;10.840;2023-07-20T16:00:18;1.65;;;1.55;;
64868;SDS011;51349;52.424;10.840;2023-07-20T16:05:19;1.40;;;1.30;;
64868;SDS011;51349;52.424;10.840;2023-07-20T16:10:20;2.53;;;1.30;;
64868;SDS011;51349;52.424;10.840;2023-07-20T16:15:20;1.20;;;1.20;;
64868;SDS011;51349;52.424;10.840;2023-07-20T16:20:21;1.60;;;1.50;;
64868;SDS011;51349;52.424;10.840;2023-07-20T16:25:22;1.33;;;1.23;;
64868;SDS011;51349;52.424;10.840;2023-07-20T16:30:22;1.27;;;1.20;;
64868;SDS011;51349;52.424;10.840;2023-07-20T16:35:23;1.33;;;1.30;;
64868;SDS011;51349;52.424;10.840;2023-07-20T16:40:24;1.45;;;1.38;;
64868;SDS011;51349;52.424;10.840;2023-07-20T16:45:24;1.60;;;1.50;;
64868;SDS011;51349;52.424;10.840;2023-07-20T16:50:25;1.70;;;1.38;;
64868;SDS011;51349;52.424;10.840;2023-07-20T16:55:26;1.20;;;1.20;;
64868;SDS011;51349;52.424;10.840;2023-07-20T17:00:27;1.42;;;1.30;;
64868;SDS011;51349;52.424;10.840;2023-07-20T17:05:27;1.50;;;1.40;;
64868;SDS011;51349;52.424;10.840;2023-07-20T17:10:29;1.30;;;1.20;;
64868;SDS011;51349;52.424;10.840;2023-07-20T17:15:33;1.30;;;1.20;;
64868;SDS011;51349;52.424;10.840;2023-07-20T17:20:34;1.27;;;1.17;;
64868;SDS011;51349;52.424;10.840;2023-07-20T17:25:34;1.52;;;1.42;;
64868;SDS011;51349;52.424;10.840;2023-07-20T17:30:35;2.58;;;1.50;;
64868;SDS011;51349;52.424;10.840;2023-07-20T17:35:36;1.75;;;1.50;;
64868;SDS011;51349;52.424;10.840;2023-07-20T17:40:36;1.30;;;1.30;;
64868;SDS011;51349;52.424;10.840;2023-07-20T17:45:37;2.58;;;1.40;;
64868;SDS011;51349;52.424;10.840;2023-07-20T17:50:38;1.60;;;1.52;;
64868;SDS011;51349;52.424;10.840;2023-07-20T17:55:39;2.30;;;1.50;;
64868;SDS011;51349;52.424;10.840;2023-07-20T18:00:40;1.60;;;1.50;;
64868;SDS011;51349;52.424;10.840;2023-07-20T18:05:41;1.55;;;1.45;;
64868;SDS011;51349;52.424;10.840;2023-07-20T18:10:41;1.60;;;1.50;;
64868;SDS011;51349;52.424;10.840;2023-07-20T18:15:42;1.40;;;1.30;;
64868;SDS011;51349;52.424;10.840;2023-07-20T18:20:43;1.42;;;1.35;;
64868;SDS011;51349;52.424;10.840;2023-07-20T18:25:44;1.42;;;1.33;;
64868;SDS011;51349;52.424;10.840;2023-07-20T18:30:44;1.30;;;1.20;;
64868;SDS011;51349;52.424;10.840;2023-07-20T18:35:46;1.33;;;1.30;;
64868;SDS011;51349;52.424;10.840;2023-07-20T18:40:46;1.83;;;1.60;;
64868;SDS011;51349;52.424;10.840;2023-07-20T18:45:47;2.25;;;1.50;;
64868;SDS011;51349;52.424;10.840;2023-07-20T18:50:48;1.42;;;1.40;;
64868;SDS011;51349;52.424;10.840;2023-07-20T18:55:49;1.20;;;1.20;;
64868;SDS011;51349;52.424;10.840;2023-07-20T19:00:49;1.52;;;1.42;;
64868;SDS011;51349;52.424;10.840;2023-07-20T19:05:50;2.13;;;1.60;;
64868;SDS011;51349;52.424;10.840;2023-07-20T19:10:51;1.45;;;1.35;;
64868;SDS011;51349;52.424;10.840;2023-07-20T19:15:52;1.52;;;1.42;;
64868;SDS011;51349;52.424;10.840;2023-07-20T19:20:59;2.67;;;1.85;;
64868;SDS011;51349;52.424;10.840;2023-07-20T19:26:04;1.67;;;1.48;;
64868;SDS011;51349;52.424;10.840;2023-07-20T19:31:06;1.65;;;1.55;;
64868;SDS011;51349;52.424;10.840;2023-07-20T19:36:07;2.25;;;1.77;;
64868;SDS011;51349;52.424;10.840;2023-07-20T19:41:07;1.75;;;1.50;;
64868;SDS011;51349;52.424;10.840;2023-07-20T19:46:08;1.60;;;1.50;;
64868;SDS011;51349;52.424;10.840;2023-07-20T19:51:09;2.08;;;1.58;;
64868;SDS011;51349;52.424;10.840;2023-07-20T19:56:10;1.52;;;1.42;;
64868;SDS011;51349;52.424;10.840;2023-07-20T20:01:10;1.20;;;1.20;;
64868;SDS011;51349;52.424;10.840;2023-07-20T20:06:11;1.85;;;1.67;;
64868;SDS011;51349;52.424;10.840;2023-07-20T20:11:12;2.00;;;1.90;;
64868;SDS011;51349;52.424;10.840;2023-07-20T20:16:12;2.17;;;2.08;;
64868;SDS011;51349;52.424;10.840;2023-07-20T20:21:13;1.80;;;1.70;;
64868;SDS011;51349;52.424;10.840;2023-07-20T20:26:15;2.92;;;1.60;;
64868;SDS011;51349;52.424;10.840;2023-07-20T20:31:16;1.70;;;1.60;;
64868;SDS011;51349;52.424;10.840;2023-07-20T20:36:16;1.65;;;1.55;;
64868;SDS011;51349;52.424;10.840;2023-07-20T20:41:17;1.63;;;1.50;;
64868;SDS011;51349;52.424;10.840;2023-07-20T20:46:18;2.35;;;2.10;;
64868;SDS011;51349;52.424;10.840;2023-07-20T20:51:20;1.70;;;1.60;;
64868;SDS011;51349;52.424;10.840;2023-07-20T20:56:20;1.90;;;1.80;;
64868;SDS011;51349;52.424;10.840;2023-07-20T21:01:21;2.08;;;1.80;;
64868;SDS011;51349;52.424;10.840;2023-07-20T21:06:22;3.25;;;1.90;;
64868;SDS011;51349;52.424;10.840;2023-07-20T21:11:23;2.42;;;1.70;;
64868;SDS011;51349;52.424;10.840;2023-07-20T21:16:23;1.80;;;1.70;;
64868;SDS011;51349;52.424;10.840;2023-07-20T21:21:24;1.98;;;1.80;;
64868;SDS011;51349;52.424;10.840;2023-07-20T21:26:26;1.73;;;1.60;;
64868;SDS011;51349;52.424;10.840;2023-07-20T21:31:26;3.15;;;2.88;;
64868;SDS011;51349;52.424;10.840;2023-07-20T21:36:27;2.30;;;2.10;;
64868;SDS011;51349;52.424;10.840;2023-07-20T21:41:28;2.40;;;2.03;;
64868;SDS011;51349;52.424;10.840;2023-07-20T21:46:28;1.88;;;1.77;;
64868;SDS011;51349;52.424;10.840;2023-07-20T21:51:29;3.65;;;2.10;;
64868;SDS011;51349;52.424;10.840;2023-07-20T21:56:30;2.00;;;1.90;;
64868;SDS011;51349;52.424;10.840;2023-07-20T22:01:31;1.90;;;1.80;;
64868;SDS011;51349;52.424;10.840;2023-07-20T22:06:32;2.35;;;2.00;;
64868;SDS011;51349;52.424;10.840;2023-07-20T22:11:33;2.08;;;1.98;;
64868;SDS011;51349;52.424;10.840;2023-07-20T22:16:33;2.03;;;1.92;;
64868;SDS011;51349;52.424;10.840;2023-07-20T22:21:34;2.33;;;1.90;;
64868;SDS011;51349;52.424;10.840;2023-07-20T22:26:35;1.73;;;1.63;;
64868;SDS011;51349;52.424;10.840;2023-07-20T22:31:36;1.98;;;1.88;;
64868;SDS011;51349;52.424;10.840;2023-07-20T22:36:36;2.80;;;2.00;;
64868;SDS011;51349;52.424;10.840;2023-07-20T22:41:37;1.92;;;1.83;;
64868;SDS011;51349;52.424;10.840;2023-07-20T22:46:38;3.85;;;1.90;;
64868;SDS011;51349;52.424;10.840;2023-07-20T22:51:38;2.45;;;2.33;;
64868;SDS011;51349;52.424;10.840;2023-07-20T22:56:39;2.45;;;2.28;;
64868;SDS011;51349;52.424;10.840;2023-07-20T23:01:39;2.70;;;1.85;;
64868;SDS011;51349;52.424;10.840;2023-07-20T23:06:43;2.20;;;2.00;;
64868;SDS011;51349;52.424;10.840;2023-07-20T23:11:43;3.10;;;1.95;;
64868;SDS011;51349;52.424;10.840;2023-07-20T23:16:45;2.10;;;1.90;;
64868;SDS011;51349;52.424;10.840;2023-07-20T23:21:46;2.72;;;1.73;;
64868;SDS011;51349;52.424;10.840;2023-07-20T23:26:47;1.90;;;1.80;;
64868;SDS011;51349;52.424;10.840;2023-07-20T23:31:47;2.13;;;1.95;;
64868;SDS011;51349;52.424;10.840;2023-07-20T23:36:48;1.90;;;1.80;;
64868;SDS011;51349;52.424;10.840;2023-07-20T23:41:49;3.10;;;1.75;;
64868;SDS011;51349;52.424;10.840;2023-07-20T23:46:49;2.20;;;2.10;;
64868;SDS011;51349;52.424;10.840;2023-07-20T23:51:50;1.95;;;1.85;;
64868;SDS011;51349;52.424;10.840;2023-07-20T23:56:51;1.90;;;1.80;;
